Ken Ryu — H9RG — position and weather

sailwx.info

Track history (hours):
 
Tides and Currents Weather Stations Pressure Air Temp Water Temp Dewpoint Dewpoint Depression Visibility Wind Speed Wind Dir Waves Ship Positions

Ken Ryu

Last reported at 2018-Apr-17 08:51 UTC. Time now 2018-Apr-19 13:40 UTC.
Position N 01°15' E 103°56'.

Length 171 m; draft 5.6 m.

Type: Cargo ship. MMSI: 372936000.

Date/timePositionNaut miles runAvg speedWind from/ knotsBaromVisibWave heightAir tempDewpointWater temp
2018-Apr-17 08:51N 01°15' E 103°56'2 3.1
2018-Apr-17 08:21N 01°14' E 103°57'3 7.3
2018-Apr-17 08:00N 01°13' E 103°55'4 8.5
2018-Apr-17 07:30N 01°11' E 103°51'510.4
2018-Apr-17 06:59N 01°08' E 103°46'510.3
2018-Apr-17 06:30N 01°05' E 103°43'5 9.1
2018-Apr-17 05:56N 01°03' E 103°38'4 8.8
2018-Apr-17 05:30N 01°05' E 103°35'710.6
2018-Apr-17 04:50N 01°09' E 103°28'412.0
2018-Apr-17 04:28N 01°11' E 103°25'612.2
2018-Apr-17 03:58N 01°15' E 103°20'  
Track history (hours):
 
Tides and Currents Weather Stations Pressure Air Temp Water Temp Dewpoint Dewpoint Depression Visibility Wind Speed Wind Dir Waves Ship Positions

Ken Ryu

Last reported at 2018-Apr-17 08:51 UTC. Time now 2018-Apr-19 13:40 UTC.
Position N 01°15' E 103°56'.

Length 171 m; draft 5.6 m.

Type: Cargo ship. MMSI: 372936000.

Date/timePositionNaut miles runAvg speedWind from/ knotsBaromVisibWave heightAir tempDewpointWater temp
2018-Apr-17 08:51N 01°15' E 103°56'2 3.1
2018-Apr-17 08:21N 01°14' E 103°57'3 7.3
2018-Apr-17 08:00N 01°13' E 103°55'4 8.5
2018-Apr-17 07:30N 01°11' E 103°51'510.4
2018-Apr-17 06:59N 01°08' E 103°46'510.3
2018-Apr-17 06:30N 01°05' E 103°43'5 9.1
2018-Apr-17 05:56N 01°03' E 103°38'4 8.8
2018-Apr-17 05:30N 01°05' E 103°35'710.6
2018-Apr-17 04:50N 01°09' E 103°28'412.0
2018-Apr-17 04:28N 01°11' E 103°25'612.2
2018-Apr-17 03:58N 01°15' E 103°20'  

Dump ship's entire track history